createdAt,value
2019-05-25T00:00:55.632Z,100190.67
2019-05-25T00:03:26.979Z,100194.86
2019-05-25T00:05:58.360Z,100191.14
2019-05-25T00:08:29.713Z,100194.08
2019-05-25T00:11:01.180Z,100194.08
2019-05-25T00:13:32.538Z,100193.99
2019-05-25T00:16:04.002Z,100187.13
2019-05-25T00:18:35.368Z,100191.87
2019-05-25T00:21:06.638Z,100186.95
2019-05-25T00:23:38.023Z,100183.53
2019-05-25T00:26:09.522Z,100191.06
2019-05-25T00:28:40.914Z,100181.02
2019-05-25T00:31:12.364Z,100185.09
2019-05-25T00:33:43.803Z,100180.68
2019-05-25T00:36:15.328Z,100182.52
2019-05-25T00:38:46.773Z,100183.23
2019-05-25T00:41:18.073Z,100186.45
2019-05-25T00:43:49.497Z,100184.68
2019-05-25T00:46:20.825Z,100189.27
2019-05-25T00:48:52.215Z,100185.73
2019-05-25T00:51:23.578Z,100187.27
2019-05-25T00:53:54.948Z,100185.70
2019-05-25T00:56:26.391Z,100184.57
2019-05-25T00:58:57.847Z,100182.38
2019-05-25T01:01:29.201Z,100182.31
2019-05-25T01:04:00.487Z,100180.02
2019-05-25T01:06:31.848Z,100185.77
2019-05-25T01:09:03.667Z,100186.56
2019-05-25T01:11:35.163Z,100194.92
2019-05-25T01:14:07.088Z,100191.38
2019-05-25T01:16:38.521Z,100187.89
2019-05-25T01:19:09.802Z,100197.59
2019-05-25T01:21:41.139Z,100196.23
2019-05-25T01:24:12.733Z,100201.23
2019-05-25T01:26:44.068Z,100200.87
2019-05-25T01:29:15.508Z,100198.19
2019-05-25T01:31:47.054Z,100201.99
2019-05-25T01:34:18.425Z,100204.13
2019-05-25T01:36:49.921Z,100200.35
2019-05-25T01:39:21.354Z,100201.91
2019-05-25T01:41:52.725Z,100207.80
2019-05-25T01:44:24.055Z,100208.83
2019-05-25T01:46:55.416Z,100208.43
2019-05-25T01:49:26.663Z,100205.80
2019-05-25T01:51:58.004Z,100206.77
2019-05-25T01:54:29.295Z,100209.33
2019-05-25T01:57:00.576Z,100203.00
2019-05-25T01:59:31.978Z,100207.40
2019-05-25T02:02:04.744Z,100205.13
2019-05-25T02:04:36.012Z,100212.28
2019-05-25T02:07:07.368Z,100207.89
2019-05-25T02:09:38.678Z,100207.51
2019-05-25T02:12:10.030Z,100217.28
2019-05-25T02:14:41.309Z,100209.66
2019-05-25T02:17:12.861Z,100209.63
2019-05-25T02:19:44.261Z,100208.21
2019-05-25T02:22:15.696Z,100207.72
2019-05-25T02:24:46.993Z,100209.54
2019-05-25T02:27:18.274Z,100210.49
2019-05-25T02:29:49.564Z,100211.31
2019-05-25T02:32:20.900Z,100213.57
2019-05-25T02:34:52.401Z,100211.56
2019-05-25T02:37:23.818Z,100209.51
2019-05-25T02:39:55.152Z,100211.66
2019-05-25T02:42:26.488Z,100208.99
2019-05-25T02:44:57.847Z,100203.23
2019-05-25T02:47:29.164Z,100206.78
2019-05-25T02:50:00.432Z,100205.86
2019-05-25T02:52:31.807Z,100209.46
2019-05-25T02:55:03.239Z,100204.79
2019-05-25T02:57:34.577Z,100206.79
2019-05-25T03:00:07.937Z,100201.00
2019-05-25T03:02:40.910Z,100209.35
2019-05-25T03:05:15.382Z,100204.99
2019-05-25T03:07:47.488Z,100208.98
2019-05-25T03:10:18.931Z,100202.80
2019-05-25T03:12:50.358Z,100208.53
2019-05-25T03:15:22.013Z,100208.51
2019-05-25T03:17:53.429Z,100203.97
2019-05-25T03:20:25.371Z,100212.81
2019-05-25T03:22:57.726Z,100215.27
2019-05-25T03:25:29.068Z,100215.20
2019-05-25T03:28:00.482Z,100220.92
2019-05-25T03:30:37.881Z,100222.67
2019-05-25T03:33:09.373Z,100226.61
2019-05-25T03:35:40.719Z,100221.67
2019-05-25T03:38:12.238Z,100226.67
2019-05-25T03:40:43.632Z,100228.50
2019-05-25T03:43:14.950Z,100226.73
2019-05-25T03:45:46.218Z,100225.82
2019-05-25T03:48:17.550Z,100226.23
2019-05-25T03:50:48.923Z,100228.88
2019-05-25T03:53:20.392Z,100228.84
2019-05-25T03:56:04.779Z,100229.78
2019-05-25T03:58:24.785Z,100229.81
2019-05-25T04:00:56.214Z,100237.80
2019-05-25T04:03:27.639Z,100236.06
2019-05-25T04:05:58.966Z,100236.09
2019-05-25T04:08:30.251Z,100239.18
2019-05-25T04:11:01.538Z,100244.10
2019-05-25T04:13:32.925Z,100240.49
2019-05-25T04:16:04.477Z,100239.59
2019-05-25T04:18:35.792Z,100246.19
2019-05-25T04:21:07.204Z,100246.64
2019-05-25T04:23:38.576Z,100247.53
2019-05-25T04:26:22.131Z,100242.74
2019-05-25T04:28:43.055Z,100250.77
2019-05-25T04:31:15.503Z,100251.63
2019-05-25T04:33:46.833Z,100246.77
2019-05-25T04:36:18.116Z,100244.11
2019-05-25T04:38:49.591Z,100253.90
2019-05-25T04:41:20.961Z,100252.13
2019-05-25T04:43:52.424Z,100251.78
2019-05-25T04:46:23.852Z,100250.36
2019-05-25T04:48:55.121Z,100255.16
2019-05-25T04:51:26.501Z,100246.73
2019-05-25T04:53:57.969Z,100252.95
2019-05-25T04:56:38.846Z,100258.27
2019-05-25T04:59:02.361Z,100256.88
2019-05-25T05:01:33.894Z,100258.18
2019-05-25T05:04:05.395Z,100262.52
2019-05-25T05:06:36.685Z,100263.34
2019-05-25T05:09:09.283Z,100265.04
2019-05-25T05:11:40.631Z,100266.72
2019-05-25T05:14:12.052Z,100260.78
2019-05-25T05:16:43.332Z,100268.17
2019-05-25T05:19:14.655Z,100270.69
2019-05-25T05:21:46.071Z,100272.81
2019-05-25T05:24:17.380Z,100270.85
2019-05-25T05:26:55.785Z,100272.10
2019-05-25T05:29:21.724Z,100277.72
2019-05-25T05:31:53.341Z,100275.40
2019-05-25T05:34:24.771Z,100276.08
2019-05-25T05:36:56.416Z,100281.48
2019-05-25T05:39:28.830Z,100281.92
2019-05-25T05:42:01.566Z,100285.16
2019-05-25T05:44:33.315Z,100282.77
2019-05-25T05:47:10.328Z,100287.47
2019-05-25T05:49:41.346Z,100287.58
2019-05-25T05:52:14.842Z,100282.66
2019-05-25T05:54:47.645Z,100286.89
2019-05-25T05:57:19.126Z,100297.30
2019-05-25T05:59:50.415Z,100295.39
2019-05-25T06:02:21.941Z,100296.22
2019-05-25T06:04:53.281Z,100304.03
2019-05-25T06:07:27.285Z,100302.44
2019-05-25T06:09:57.537Z,100304.66
2019-05-25T06:12:29.021Z,100296.92
2019-05-25T06:15:00.372Z,100312.16
2019-05-25T06:17:36.635Z,100310.42
2019-05-25T06:20:08.807Z,100309.11
2019-05-25T06:22:40.238Z,100308.42
2019-05-25T06:25:14.359Z,100318.78
2019-05-25T06:27:45.806Z,100322.02
2019-05-25T06:30:18.727Z,100319.45
2019-05-25T06:32:50.326Z,100319.28
2019-05-25T06:35:21.796Z,100326.25
2019-05-25T06:37:53.296Z,100320.73
2019-05-25T06:40:24.897Z,100327.27
2019-05-25T06:42:56.254Z,100327.14
2019-05-25T06:45:27.760Z,100334.16
2019-05-25T06:47:59.183Z,100328.89
2019-05-25T06:50:30.734Z,100334.58
2019-05-25T06:53:02.128Z,100333.27
2019-05-25T06:55:33.562Z,100333.45
2019-05-25T06:58:05.307Z,100328.60
2019-05-25T07:00:36.748Z,100325.58
2019-05-25T07:03:08.298Z,100331.87
2019-05-25T07:05:39.569Z,100335.33
2019-05-25T07:08:10.929Z,100339.20
2019-05-25T07:10:42.280Z,100340.99
2019-05-25T07:13:13.706Z,100349.88
2019-05-25T07:15:45.057Z,100342.99
2019-05-25T07:18:16.511Z,100343.53
2019-05-25T07:20:48.003Z,100351.52
2019-05-25T07:23:19.512Z,100355.93
2019-05-25T07:25:51.037Z,100350.03
2019-05-25T07:28:22.679Z,100358.87
2019-05-25T07:30:54.233Z,100355.89
2019-05-25T07:33:26.044Z,100365.11
2019-05-25T07:35:57.419Z,100364.38
2019-05-25T07:38:29.130Z,100362.88
2019-05-25T07:41:00.823Z,100364.34
2019-05-25T07:43:32.268Z,100367.64
2019-05-25T07:46:04.387Z,100373.19
2019-05-25T07:48:36.661Z,100368.53
2019-05-25T07:51:11.370Z,100368.08
2019-05-25T07:53:43.103Z,100369.62
2019-05-25T07:56:15.464Z,100375.96
2019-05-25T07:58:47.030Z,100379.19
2019-05-25T08:01:18.785Z,100377.55
2019-05-25T08:03:52.757Z,100374.45
2019-05-25T08:06:24.288Z,100375.44
2019-05-25T08:08:58.619Z,100376.09
2019-05-25T08:11:32.587Z,100380.84
2019-05-25T08:14:04.016Z,100384.45
2019-05-25T08:16:35.459Z,100381.12
2019-05-25T08:19:08.023Z,100387.50
2019-05-25T08:21:39.537Z,100390.67
2019-05-25T08:24:11.417Z,100389.75
2019-05-25T08:26:54.276Z,100386.08
2019-05-25T08:29:25.839Z,100387.51
2019-05-25T08:31:57.437Z,100395.55
2019-05-25T08:34:28.832Z,100395.64
2019-05-25T08:37:00.323Z,100397.18
2019-05-25T08:39:31.651Z,100391.23
2019-05-25T08:42:04.785Z,100400.63
2019-05-25T08:44:36.670Z,100398.97
2019-05-25T08:47:08.674Z,100391.52
2019-05-25T08:49:40.364Z,100393.53
2019-05-25T08:52:12.747Z,100395.31
2019-05-25T08:54:44.280Z,100396.87
2019-05-25T08:57:18.585Z,100396.98
2019-05-25T08:59:49.209Z,100398.45
2019-05-25T09:02:20.692Z,100395.50
2019-05-25T09:04:52.230Z,100396.79
2019-05-25T09:07:23.580Z,100397.84
2019-05-25T09:09:54.970Z,100397.47
2019-05-25T09:12:26.334Z,100398.55
2019-05-25T09:14:57.751Z,100395.02
2019-05-25T09:17:29.175Z,100392.95
2019-05-25T09:20:00.601Z,100396.36
2019-05-25T09:22:32.014Z,100390.15
2019-05-25T09:25:03.910Z,100395.22
2019-05-25T09:27:35.250Z,100399.41
2019-05-25T09:30:09.345Z,100383.80
2019-05-25T09:32:40.687Z,100383.74
2019-05-25T09:35:12.564Z,100389.59
2019-05-25T09:37:44.025Z,100375.86
2019-05-25T09:40:15.780Z,100377.52
2019-05-25T09:42:47.374Z,100380.25
2019-05-25T09:45:19.853Z,100375.70
2019-05-25T09:47:51.364Z,100377.38
2019-05-25T09:50:22.908Z,100378.47
2019-05-25T09:52:55.994Z,100377.95
2019-05-25T09:55:27.604Z,100372.30
2019-05-25T09:57:59.026Z,100361.79
2019-05-25T10:00:31.276Z,100369.77
2019-05-25T10:03:02.771Z,100372.57
2019-05-25T10:05:35.394Z,100375.61
2019-05-25T10:08:06.814Z,100378.94
2019-05-25T10:10:40.330Z,100370.61
2019-05-25T10:13:20.111Z,100376.33
2019-05-25T10:20:09.698Z,100365.23
2019-05-25T10:21:59.541Z,100361.59
2019-05-25T10:24:38.748Z,100361.83
2019-05-25T10:27:25.857Z,100359.37
2019-05-25T10:29:53.298Z,100367.91
2019-05-25T10:32:35.511Z,100362.87
2019-05-25T10:35:08.466Z,100364.59
2019-05-25T10:37:40.064Z,100361.80
2019-05-25T10:40:11.686Z,100356.61
2019-05-25T10:42:43.237Z,100356.97
2019-05-25T10:45:22.255Z,100354.66
2019-05-25T10:47:55.433Z,100353.59
2019-05-25T10:50:30.487Z,100353.67
2019-05-25T10:53:04.313Z,100356.94
2019-05-25T10:55:36.049Z,100354.10
2019-05-25T10:58:08.219Z,100351.05
2019-05-25T11:00:42.162Z,100354.10
2019-05-25T11:03:18.411Z,100353.05
2019-05-25T11:05:55.971Z,100347.76
2019-05-25T11:08:29.548Z,100350.27
2019-05-25T11:11:01.135Z,100342.66
2019-05-25T11:13:33.997Z,100345.61
2019-05-25T11:16:05.657Z,100339.77
2019-05-25T11:18:37.006Z,100340.06
2019-05-25T11:21:14.278Z,100343.05
2019-05-25T11:23:56.076Z,100337.59
2019-05-25T11:26:27.428Z,100339.47
2019-05-25T11:28:58.927Z,100342.25
2019-05-25T11:31:33.357Z,100338.81
2019-05-25T11:34:13.405Z,100343.59
2019-05-25T11:36:47.385Z,100335.44
2019-05-25T11:39:52.172Z,100336.43
2019-05-25T11:42:27.433Z,100337.12
2019-05-25T11:44:59.909Z,100333.39
2019-05-25T11:47:37.356Z,100334.33
2019-05-25T11:50:15.171Z,100339.05
2019-05-25T11:52:55.368Z,100336.13
2019-05-25T11:55:27.028Z,100333.47
2019-05-25T11:58:08.333Z,100330.29
2019-05-25T12:00:45.060Z,100328.23
2019-05-25T12:03:20.943Z,100333.13
2019-05-25T12:06:13.913Z,100330.16
2019-05-25T12:08:45.393Z,100326.31
2019-05-25T12:11:16.786Z,100319.50
2019-05-25T12:13:48.529Z,100310.75
2019-05-25T12:16:19.938Z,100310.72
2019-05-25T12:18:51.439Z,100310.09
2019-05-25T12:21:24.539Z,100307.75
2019-05-25T12:23:58.050Z,100304.98
2019-05-25T12:26:37.168Z,100305.71
2019-05-25T12:29:13.383Z,100298.92
2019-05-25T12:31:44.909Z,100296.69
2019-05-25T12:34:16.711Z,100290.63
2019-05-25T12:36:52.527Z,100290.27
2019-05-25T12:39:26.735Z,100296.58
2019-05-25T12:41:58.382Z,100286.93
2019-05-25T12:44:48.428Z,100287.22
2019-05-25T12:47:19.877Z,100285.54
2019-05-25T12:49:51.410Z,100280.06
2019-05-25T12:52:24.851Z,100274.42
2019-05-25T12:54:57.878Z,100275.16
2019-05-25T12:57:29.396Z,100272.03
2019-05-25T13:00:14.704Z,100278.20
2019-05-25T13:02:38.388Z,100274.41
2019-05-25T13:05:34.181Z,100267.98
2019-05-25T13:08:00.405Z,100275.21
2019-05-25T13:10:37.041Z,100275.45
2019-05-25T13:13:14.903Z,100271.00
2019-05-25T13:15:51.232Z,100269.06
2019-05-25T13:18:24.343Z,100264.14
2019-05-25T13:20:56.415Z,100266.31
2019-05-25T13:23:27.757Z,100265.98
2019-05-25T13:25:59.146Z,100264.08
2019-05-25T13:28:30.753Z,100251.66
2019-05-25T13:31:11.299Z,100246.58
2019-05-25T13:33:35.202Z,100244.29
2019-05-25T13:36:06.657Z,100252.07
2019-05-25T13:38:38.346Z,100235.21
2019-05-25T13:41:11.813Z,100240.47
2019-05-25T13:43:45.995Z,100243.27
2019-05-25T13:46:46.980Z,100233.70
2019-05-25T13:49:25.332Z,100236.25
2019-05-25T13:52:19.562Z,100236.41
2019-05-25T13:55:04.666Z,100234.00
2019-05-25T13:57:37.796Z,100230.15
2019-05-25T14:00:23.415Z,100234.52
2019-05-25T14:02:59.469Z,100229.64
2019-05-25T14:05:31.164Z,100233.70
2019-05-25T14:08:12.132Z,100242.09
2019-05-25T14:10:36.363Z,100237.97
2019-05-25T14:13:09.845Z,100234.50
2019-05-25T14:15:41.261Z,100232.60
2019-05-25T14:18:12.947Z,100232.47
2019-05-25T14:20:44.489Z,100234.74
2019-05-25T14:23:17.134Z,100236.70
2019-05-25T14:25:48.857Z,100237.54
2019-05-25T14:28:22.168Z,100240.92
2019-05-25T14:30:55.200Z,100239.20
2019-05-25T14:33:26.897Z,100237.37
2019-05-25T14:36:09.179Z,100235.30
2019-05-25T14:38:40.856Z,100237.06
2019-05-25T14:41:12.627Z,100230.93
2019-05-25T14:43:44.037Z,100233.70
2019-05-25T14:46:27.347Z,100233.48
2019-05-25T14:48:58.927Z,100227.07
2019-05-25T14:51:30.787Z,100232.87
2019-05-25T14:54:02.493Z,100232.30
2019-05-25T14:56:34.422Z,100231.38
2019-05-25T14:59:06.415Z,100233.87
2019-05-25T15:01:37.818Z,100231.22
2019-05-25T15:04:09.397Z,100226.21
2019-05-25T15:06:40.847Z,100226.22
2019-05-25T15:09:13.957Z,100219.97
2019-05-25T15:11:45.379Z,100221.34
2019-05-25T15:14:16.868Z,100215.39
2019-05-25T15:16:48.550Z,100223.19
2019-05-25T15:19:20.204Z,100224.52
2019-05-25T15:21:52.060Z,100224.23
2019-05-25T15:24:23.600Z,100223.95
2019-05-25T15:26:54.915Z,100220.09
2019-05-25T15:29:26.708Z,100215.17
2019-05-25T15:31:58.452Z,100218.20
2019-05-25T15:34:33.365Z,100225.98
2019-05-25T15:37:05.195Z,100228.73
2019-05-25T15:39:36.540Z,100223.16
2019-05-25T15:42:08.296Z,100232.22
2019-05-25T15:44:42.451Z,100228.61
2019-05-25T15:47:14.096Z,100235.77
2019-05-25T15:49:45.504Z,100238.27
2019-05-25T15:52:21.323Z,100240.95
2019-05-25T15:54:57.661Z,100236.25
2019-05-25T15:57:33.602Z,100234.23
2019-05-25T16:00:14.004Z,100237.09
2019-05-25T16:02:51.881Z,100236.86
2019-05-25T16:05:25.360Z,100240.80
2019-05-25T16:07:56.919Z,100237.66
2019-05-25T16:10:28.399Z,100240.92
2019-05-25T16:13:00.035Z,100236.34
2019-05-25T16:15:31.478Z,100237.02
2019-05-25T16:18:03.195Z,100241.99
2019-05-25T16:20:34.527Z,100237.20
2019-05-25T16:23:07.702Z,100245.19
2019-05-25T16:25:39.121Z,100242.45
2019-05-25T16:28:10.727Z,100241.42
2019-05-25T16:30:42.158Z,100257.27
2019-05-25T16:33:14.811Z,100248.99
2019-05-25T16:35:46.477Z,100258.05
2019-05-25T16:38:18.513Z,100264.77
2019-05-25T16:40:49.854Z,100262.67
2019-05-25T16:43:22.460Z,100266.75
2019-05-25T16:45:56.896Z,100263.42
2019-05-25T16:48:28.776Z,100263.39
2019-05-25T16:51:00.164Z,100261.63
2019-05-25T16:53:32.788Z,100266.37
2019-05-25T16:56:04.441Z,100264.44
2019-05-25T16:58:35.740Z,100265.81
2019-05-25T17:01:07.118Z,100264.94
2019-05-25T17:03:38.522Z,100265.53
2019-05-25T17:06:10.112Z,100261.56
2019-05-25T17:08:42.833Z,100270.58
2019-05-25T17:11:14.234Z,100268.09
2019-05-25T17:13:45.536Z,100266.44
2019-05-25T17:16:17.216Z,100269.19
2019-05-25T17:18:48.888Z,100269.10
2019-05-25T17:21:20.546Z,100274.95
2019-05-25T17:23:53.071Z,100268.00
2019-05-25T17:26:24.532Z,100272.81
2019-05-25T17:28:55.941Z,100275.20
2019-05-25T17:31:27.301Z,100272.92
2019-05-25T17:33:58.820Z,100275.22
2019-05-25T17:36:30.391Z,100274.02
2019-05-25T17:39:01.919Z,100277.98
2019-05-25T17:41:34.287Z,100279.92
2019-05-25T17:44:05.903Z,100287.18
2019-05-25T17:46:37.422Z,100285.72
2019-05-25T17:49:28.970Z,100285.89
2019-05-25T17:52:01.983Z,100282.85
2019-05-25T17:54:33.637Z,100288.64
2019-05-25T17:57:06.219Z,100286.84
2019-05-25T17:59:37.601Z,100285.96
2019-05-25T18:02:09.010Z,100290.86
2019-05-25T18:04:40.575Z,100290.50
2019-05-25T18:07:12.938Z,100290.11
2019-05-25T18:09:44.424Z,100294.16
2019-05-25T18:12:15.964Z,100296.38
2019-05-25T18:14:47.258Z,100290.39
2019-05-25T18:17:19.124Z,100289.92
2019-05-25T18:19:50.609Z,100290.23
2019-05-25T18:22:22.259Z,100293.19
2019-05-25T18:24:53.663Z,100303.05
2019-05-25T18:27:25.251Z,100298.41
2019-05-25T18:29:56.558Z,100297.63
2019-05-25T18:32:27.856Z,100304.57
2019-05-25T18:34:59.253Z,100302.54
2019-05-25T18:37:30.655Z,100307.08
2019-05-25T18:40:02.243Z,100299.37
2019-05-25T18:42:33.732Z,100307.11
2019-05-25T18:45:07.321Z,100309.05
2019-05-25T18:47:38.878Z,100303.91
2019-05-25T18:50:12.441Z,100303.61
2019-05-25T18:52:45.985Z,100306.25
2019-05-25T18:55:18.594Z,100306.25
2019-05-25T18:57:53.065Z,100308.10
2019-05-25T19:00:25.119Z,100311.53
2019-05-25T19:02:56.916Z,100313.09
2019-05-25T19:05:28.423Z,100311.47
2019-05-25T19:08:00.135Z,100308.46
2019-05-25T19:10:31.923Z,100313.62
2019-05-25T19:13:03.431Z,100318.19
2019-05-25T19:15:35.241Z,100323.05
2019-05-25T19:18:07.133Z,100326.31
2019-05-25T19:20:38.937Z,100320.36
2019-05-25T19:23:10.702Z,100327.26
2019-05-25T19:25:46.400Z,100325.96
2019-05-25T19:28:19.739Z,100336.41
2019-05-25T19:30:55.416Z,100339.93
2019-05-25T19:33:29.638Z,100343.19
2019-05-25T19:36:03.555Z,100350.19
2019-05-25T19:38:36.702Z,100350.73
2019-05-25T19:41:10.034Z,100353.17
2019-05-25T19:43:41.932Z,100355.04
2019-05-25T19:46:13.467Z,100359.20
2019-05-25T19:48:44.943Z,100359.10
2019-05-25T19:51:16.396Z,100364.31
2019-05-25T19:53:47.783Z,100364.73
2019-05-25T19:56:19.110Z,100370.54
2019-05-25T19:58:50.519Z,100373.39
2019-05-25T20:01:21.894Z,100380.56
2019-05-25T20:03:57.191Z,100383.44
2019-05-25T20:06:26.328Z,100380.11
2019-05-25T20:08:57.713Z,100384.38
2019-05-25T20:11:29.198Z,100387.84
2019-05-25T20:14:00.616Z,100391.52
2019-05-25T20:16:32.155Z,100393.09
2019-05-25T20:19:03.703Z,100396.86
2019-05-25T20:21:35.243Z,100398.09
2019-05-25T20:24:06.692Z,100402.53
2019-05-25T20:26:38.004Z,100407.94
2019-05-25T20:29:09.437Z,100406.64
2019-05-25T20:31:40.748Z,100409.80
2019-05-25T20:34:12.139Z,100414.84
2019-05-25T20:36:43.428Z,100419.25
2019-05-25T20:39:15.759Z,100420.92
2019-05-25T20:41:47.093Z,100420.85
2019-05-25T20:44:18.614Z,100420.27
2019-05-25T20:46:49.985Z,100420.79
2019-05-25T20:49:21.281Z,100428.78
2019-05-25T20:51:52.753Z,100428.20
2019-05-25T20:54:24.061Z,100435.83
2019-05-25T20:56:55.429Z,100441.19
2019-05-25T20:59:26.728Z,100438.05
2019-05-25T21:01:58.095Z,100436.41
2019-05-25T21:04:29.455Z,100439.94
2019-05-25T21:07:01.161Z,100440.00
2019-05-25T21:09:32.979Z,100441.44
2019-05-25T21:12:04.519Z,100441.34
2019-05-25T21:14:35.974Z,100447.48
2019-05-25T21:17:07.486Z,100445.80
2019-05-25T21:19:38.829Z,100442.92
2019-05-25T21:22:10.150Z,100442.95
2019-05-25T21:24:41.415Z,100444.89
2019-05-25T21:27:12.942Z,100437.94
2019-05-25T21:29:44.401Z,100445.51
2019-05-25T21:32:15.771Z,100445.53
2019-05-25T21:34:47.132Z,100451.00
2019-05-25T21:37:19.591Z,100453.25
2019-05-25T21:39:51.739Z,100454.28
2019-05-25T21:42:23.227Z,100457.87
2019-05-25T21:44:54.642Z,100450.33
2019-05-25T21:47:26.360Z,100454.41
2019-05-25T21:49:57.810Z,100449.59
2019-05-25T21:52:29.203Z,100455.16
2019-05-25T21:55:01.609Z,100450.64
2019-05-25T21:57:33.223Z,100460.03
2019-05-25T22:00:11.808Z,100452.38
2019-05-25T22:02:44.675Z,100450.36
2019-05-25T22:05:17.064Z,100452.55
2019-05-25T22:07:48.473Z,100450.81
2019-05-25T22:10:19.943Z,100441.45
2019-05-25T22:12:51.344Z,100441.09
2019-05-25T22:15:22.836Z,100437.23
2019-05-25T22:17:54.551Z,100434.55
2019-05-25T22:20:26.023Z,100436.41
2019-05-25T22:22:59.059Z,100435.58
2019-05-25T22:25:30.513Z,100435.54
2019-05-25T22:28:01.887Z,100445.00
2019-05-25T22:30:33.375Z,100442.30
2019-05-25T22:33:04.662Z,100441.70
2019-05-25T22:35:36.428Z,100442.33
2019-05-25T22:38:07.848Z,100445.02
2019-05-25T22:40:39.406Z,100443.80
2019-05-25T22:43:10.740Z,100439.66
2019-05-25T22:45:42.172Z,100440.81
2019-05-25T22:48:13.551Z,100440.91
2019-05-25T22:50:46.049Z,100445.43
2019-05-25T22:53:17.574Z,100445.98
2019-05-25T22:55:49.065Z,100450.06
2019-05-25T22:58:20.628Z,100448.06
2019-05-25T23:00:52.151Z,100450.81
2019-05-25T23:03:24.632Z,100444.86
2019-05-25T23:05:55.952Z,100449.52
2019-05-25T23:08:27.539Z,100446.64
2019-05-25T23:10:58.909Z,100439.41
2019-05-25T23:13:30.214Z,100441.51
2019-05-25T23:16:01.713Z,100433.34
2019-05-25T23:18:33.188Z,100431.62
2019-05-25T23:21:05.019Z,100430.00
2019-05-25T23:23:36.486Z,100433.92
2019-05-25T23:26:08.067Z,100434.92
2019-05-25T23:28:40.240Z,100436.73
2019-05-25T23:31:12.036Z,100435.86
2019-05-25T23:33:43.659Z,100435.42
2019-05-25T23:36:15.308Z,100434.54
2019-05-25T23:38:46.901Z,100435.09
2019-05-25T23:41:18.423Z,100432.91
2019-05-25T23:43:52.523Z,100429.49
2019-05-25T23:46:24.167Z,100439.98
2019-05-25T23:48:55.533Z,100432.61
2019-05-25T23:51:26.882Z,100433.45
2019-05-25T23:53:58.245Z,100433.64
2019-05-25T23:56:29.613Z,100430.52
2019-05-25T23:59:01.187Z,100431.42
